Time;durP1;ratioP1;P1;durP2;ratioP2;P2;SDS_P1;SDS_P2;PMS_P1;PMS_P2;Temp;Humidity;BMP_temperature;BMP_pressure;BME280_temperature;BME280_humidity;BME280_pressure;Samples;Min_cycle;Max_cycle;Signal;HPM_P1;HPM_P2
2022/09/18 00:00:18;;;;;;;3.47;1.20;;;;;;;10.33;100.00;98663.31;4154706;28;20327;-46
2022/09/18 00:02:19;;;;;;;5.68;2.25;;;;;;;10.15;100.00;98669.00;4168473;28;20299;-47
2022/09/18 00:04:21;;;;;;;2.28;1.23;;;;;;;10.20;100.00;98675.38;4183752;28;20290;-46
2022/09/18 00:06:25;;;;;;;2.05;1.10;;;;;;;10.34;100.00;98665.00;4170609;28;20204;-46
2022/09/18 00:08:27;;;;;;;2.75;1.00;;;;;;;10.24;100.00;98664.78;4168021;28;20239;-46
2022/09/18 00:10:29;;;;;;;2.70;1.63;;;;;;;10.19;100.00;98664.69;4150839;28;20487;-47
2022/09/18 00:12:31;;;;;;;1.83;0.98;;;;;;;10.19;100.00;98662.78;4136376;28;20719;-46
2022/09/18 00:14:32;;;;;;;2.67;1.08;;;;;;;10.18;100.00;98663.03;4150632;28;20280;-46
2022/09/18 00:16:34;;;;;;;3.25;0.93;;;;;;;10.11;100.00;98660.44;4160124;28;20668;-45
2022/09/18 00:18:36;;;;;;;1.10;1.00;;;;;;;10.14;100.00;98664.59;4154531;28;20598;-45
2022/09/18 00:20:41;;;;;;;3.38;1.27;;;;;;;10.18;100.00;98654.81;4153142;28;20227;-45
2022/09/18 00:22:43;;;;;;;3.35;1.30;;;;;;;10.18;100.00;98654.81;4185745;28;20792;-45
2022/09/18 00:24:44;;;;;;;2.38;1.13;;;;;;;10.16;100.00;98662.44;4137551;28;20210;-45
2022/09/18 00:26:46;;;;;;;3.90;1.42;;;;;;;10.20;100.00;98653.50;4181933;28;20636;-45
2022/09/18 00:28:48;;;;;;;2.58;1.38;;;;;;;10.10;100.00;98653.31;4154731;28;20242;-46
2022/09/18 00:30:50;;;;;;;4.28;1.25;;;;;;;10.14;100.00;98651.75;4172658;28;20267;-45
2022/09/18 00:32:51;;;;;;;1.13;1.00;;;;;;;10.18;100.00;98650.19;4154157;28;20303;-46
2022/09/18 00:34:53;;;;;;;3.28;1.20;;;;;;;10.13;100.00;98646.50;4166015;28;20675;-46
2022/09/18 00:36:55;;;;;;;4.70;1.65;;;;;;;10.22;100.00;98639.59;4154409;28;20207;-45
2022/09/18 00:39:00;;;;;;;2.75;1.40;;;;;;;10.21;100.00;98640.69;4154551;28;20710;-46
2022/09/18 00:41:04;;;;;;;3.60;1.27;;;;;;;10.16;100.00;98643.31;4143661;28;20205;-46
2022/09/18 00:43:23;;;;;;;1.33;1.20;;;;;;;10.21;100.00;98641.50;4186065;28;20206;-47
2022/09/18 00:45:25;;;;;;;2.35;1.05;;;;;;;10.23;100.00;98646.72;4187720;28;20234;-44
2022/09/18 00:47:34;;;;;;;3.90;1.25;;;;;;;10.20;100.00;98647.19;4142526;28;20244;-44
2022/09/18 00:49:43;;;;;;;10.38;1.42;;;;;;;10.21;100.00;98648.88;4184980;28;20227;-44
2022/09/18 00:51:47;;;;;;;5.13;1.27;;;;;;;10.19;100.00;98651.84;4169635;28;20290;-45
2022/09/18 00:54:00;;;;;;;1.80;0.88;;;;;;;10.24;100.00;98648.38;4140695;28;20220;-45
2022/09/18 00:56:03;;;;;;;1.58;1.00;;;;;;;10.31;100.00;98651.78;4169908;28;20207;-45
2022/09/18 00:58:05;;;;;;;4.32;1.38;;;;;;;10.26;100.00;98657.16;4156335;28;20252;-45
2022/09/18 01:00:11;;;;;;;1.52;1.10;;;;;;;10.36;100.00;98657.38;4162333;28;20263;-45
2022/09/18 01:02:12;;;;;;;2.63;1.08;;;;;;;10.28;100.00;98655.03;4149257;28;20205;-45
2022/09/18 01:04:14;;;;;;;11.38;1.00;;;;;;;10.33;100.00;98652.38;4161987;28;20200;-45
2022/09/18 01:06:41;;;;;;;1.20;1.10;;;;;;;10.27;100.00;98658.84;4154128;28;20216;-45
2022/09/18 01:08:46;;;;;;;0.80;0.80;;;;;;;10.29;100.00;98662.16;4167424;28;20239;-45
2022/09/18 01:10:56;;;;;;;1.52;1.10;;;;;;;10.39;100.00;98659.59;4151310;28;20202;-45
2022/09/18 01:13:15;;;;;;;4.15;1.38;;;;;;;10.24;100.00;98665.63;4167535;28;20208;-45
2022/09/18 01:15:33;;;;;;;2.35;1.00;;;;;;;10.20;100.00;98666.34;4176877;28;20211;-45
2022/09/18 01:17:35;;;;;;;0.90;0.90;;;;;;;10.22;100.00;98656.81;4160508;28;20255;-47
2022/09/18 01:19:45;;;;;;;1.40;1.00;;;;;;;10.24;100.00;98660.16;4168120;28;20335;-46
2022/09/18 01:22:06;;;;;;;2.33;1.10;;;;;;;10.24;100.00;98670.25;4167468;28;20258;-46
2022/09/18 01:24:27;;;;;;;2.17;1.15;;;;;;;10.21;100.00;98659.81;4152235;28;20216;-47
2022/09/18 01:26:39;;;;;;;1.60;1.20;;;;;;;10.19;100.00;98662.78;4152612;28;20248;-46
2022/09/18 01:28:51;;;;;;;1.98;0.93;;;;;;;10.25;100.00;98655.50;4167956;28;20204;-46
2022/09/18 01:30:56;;;;;;;3.20;1.35;;;;;;;10.20;100.00;98671.81;4154633;28;20204;-47
2022/09/18 01:33:17;;;;;;;1.60;1.08;;;;;;;10.21;100.00;98665.28;4140656;28;20221;-46
2022/09/18 01:35:39;;;;;;;1.90;1.17;;;;;;;10.20;100.00;98658.97;4163896;28;20238;-46
2022/09/18 01:37:45;;;;;;;3.08;1.30;;;;;;;10.16;100.00;98656.97;4166329;28;20211;-46
2022/09/18 01:40:16;;;;;;;4.28;1.08;;;;;;;10.22;100.00;98656.00;4184780;28;20222;-46
2022/09/18 01:42:21;;;;;;;1.88;1.23;;;;;;;10.21;100.00;98651.63;4140133;28;20330;-46
2022/09/18 01:44:28;;;;;;;2.28;1.00;;;;;;;10.14;100.00;98643.53;4156276;28;20201;-47
2022/09/18 01:46:30;;;;;;;3.33;1.45;;;;;;;10.23;100.00;98654.94;4188799;28;20287;-46
2022/09/18 01:48:36;;;;;;;2.60;1.00;;;;;;;10.29;100.00;98652.03;4154759;28;20213;-46
2022/09/18 01:50:42;;;;;;;2.85;1.27;;;;;;;10.17;100.00;98658.63;4171593;28;20582;-46
2022/09/18 01:53:07;;;;;;;2.28;1.17;;;;;;;10.21;100.00;98657.91;4155389;28;20303;-46
2022/09/18 01:55:15;;;;;;;1.45;0.90;;;;;;;10.23;100.00;98663.13;4155415;28;20560;-46
2022/09/18 01:57:38;;;;;;;2.85;1.20;;;;;;;10.19;100.00;98667.41;4169876;28;20207;-47
2022/09/18 01:59:43;;;;;;;2.80;1.58;;;;;;;10.24;100.00;98659.31;4154161;28;20660;-46
2022/09/18 02:01:46;;;;;;;2.10;1.75;;;;;;;10.25;100.00;98660.97;4161645;28;20201;-46
2022/09/18 02:03:53;;;;;;;2.78;1.20;;;;;;;10.16;100.00;98656.97;4162914;28;20622;-46
2022/09/18 02:06:10;;;;;;;1.50;1.40;;;;;;;10.18;100.00;98654.81;4153921;28;20712;-46
2022/09/18 02:08:27;;;;;;;2.97;1.38;;;;;;;10.19;100.00;98661.94;4152637;28;20300;-47
2022/09/18 02:10:31;;;;;;;6.43;1.50;;;;;;;10.24;100.00;98653.84;4187235;28;20227;-46
2022/09/18 02:12:35;;;;;;;2.10;1.20;;;;;;;10.19;100.00;98653.75;4178887;28;20214;-46
2022/09/18 02:14:40;;;;;;;1.77;1.02;;;;;;;10.23;100.00;98657.66;4158682;28;20267;-46
2022/09/18 02:16:54;;;;;;;1.30;1.20;;;;;;;10.26;100.00;98654.41;4157553;28;20217;-47
2022/09/18 02:18:57;;;;;;;3.50;1.00;;;;;;;10.25;100.00;98650.03;4157056;28;20222;-47
2022/09/18 02:20:59;;;;;;;2.38;1.50;;;;;;;10.17;100.00;98653.16;4173267;28;20218;-45
2022/09/18 02:23:04;;;;;;;3.35;1.52;;;;;;;10.14;100.00;98654.47;4170193;28;20209;-45
2022/09/18 02:25:08;;;;;;;4.13;1.40;;;;;;;10.17;100.00;98648.53;4169349;28;20219;-45
2022/09/18 02:27:11;;;;;;;1.23;0.98;;;;;;;10.17;100.00;98653.16;4170136;28;20196;-46
2022/09/18 02:29:14;;;;;;;5.35;1.55;;;;;;;10.11;100.00;98654.13;4146462;28;20315;-47
2022/09/18 02:31:19;;;;;;;1.38;1.00;;;;;;;10.12;100.00;98650.31;4172879;28;20216;-45
2022/09/18 02:33:24;;;;;;;2.03;1.05;;;;;;;10.21;100.00;98637.94;4158518;28;20595;-48
2022/09/18 02:35:33;;;;;;;1.75;1.20;;;;;;;10.23;100.00;98646.72;4157213;28;20675;-46
2022/09/18 02:38:16;;;;;;;2.15;1.33;;;;;;;10.27;100.00;98648.72;4158373;28;20200;-45
2022/09/18 02:40:30;;;;;;;2.38;1.05;;;;;;;10.21;100.00;98643.41;4172528;28;20215;-46
2022/09/18 02:42:50;;;;;;;2.78;1.20;;;;;;;10.32;100.00;98645.25;4185625;28;20211;-46
2022/09/18 02:45:13;;;;;;;6.65;1.40;;;;;;;10.19;100.00;98648.28;4186406;28;20206;-45
2022/09/18 02:47:40;;;;;;;1.15;1.08;;;;;;;10.33;100.00;98644.16;4154208;28;20284;-45
2022/09/18 02:49:59;;;;;;;3.42;1.52;;;;;;;10.26;100.00;98646.22;4153468;28;20228;-45
2022/09/18 02:52:10;;;;;;;1.50;1.13;;;;;;;10.21;100.00;98649.69;4170116;28;20215;-46
2022/09/18 02:54:36;;;;;;;2.72;1.67;;;;;;;10.34;100.00;98648.59;4154366;28;20302;-45
2022/09/18 02:57:04;;;;;;;1.75;0.88;;;;;;;10.17;100.00;98651.28;4171423;28;20267;-45
2022/09/18 02:59:10;;;;;;;1.42;0.85;;;;;;;10.19;100.00;98656.47;4160686;28;20741;-46
2022/09/18 03:01:12;;;;;;;2.80;1.20;;;;;;;10.17;100.00;98650.44;4184427;28;20196;-47
2022/09/18 03:03:16;;;;;;;3.42;1.20;;;;;;;10.28;100.00;98649.56;4154676;28;20206;-46
2022/09/18 03:05:18;;;;;;;3.08;1.13;;;;;;;10.39;100.00;98645.91;4168700;28;20208;-46
2022/09/18 03:07:20;;;;;;;1.13;1.02;;;;;;;10.25;100.00;98639.09;4161507;28;20683;-45
2022/09/18 03:09:24;;;;;;;3.10;0.95;;;;;;;10.29;100.00;98643.00;4151851;28;20228;-46
2022/09/18 03:11:26;;;;;;;3.53;0.98;;;;;;;10.35;100.00;98645.59;4151980;28;20248;-46
2022/09/18 03:13:27;;;;;;;3.15;0.88;;;;;;;10.35;100.00;98642.84;4155824;28;20291;-46
2022/09/18 03:15:29;;;;;;;7.57;1.30;;;;;;;10.31;100.00;98638.13;4161843;28;20212;-46
2022/09/18 03:17:31;;;;;;;1.45;0.90;;;;;;;10.28;100.00;98635.88;4177940;28;20328;-47
2022/09/18 03:19:32;;;;;;;1.20;0.98;;;;;;;10.41;100.00;98630.13;4169343;28;20706;-46
2022/09/18 03:21:34;;;;;;;1.85;1.00;;;;;;;10.35;100.00;98631.91;4162499;28;20211;-46
2022/09/18 03:23:35;;;;;;;1.73;1.17;;;;;;;10.41;100.00;98630.13;4164527;28;20254;-46
2022/09/18 03:25:37;;;;;;;1.75;0.98;;;;;;;10.47;100.00;98627.22;4175120;28;20214;-46
2022/09/18 03:27:39;;;;;;;3.00;1.30;;;;;;;10.35;100.00;98629.16;4154757;28;20248;-46
2022/09/18 03:29:40;;;;;;;1.05;0.93;;;;;;;10.41;100.00;98627.38;4156531;28;20217;-46
2022/09/18 03:31:42;;;;;;;1.42;1.10;;;;;;;10.47;100.00;98629.13;4142462;28;20209;-46
2022/09/18 03:33:44;;;;;;;4.50;1.08;;;;;;;10.43;100.00;98631.53;4152391;28;20235;-48
2022/09/18 03:35:46;;;;;;;2.90;1.40;;;;;;;10.43;100.00;98636.16;4154815;28;20304;-46
2022/09/18 03:37:47;;;;;;;3.58;1.08;;;;;;;10.36;100.00;98632.75;4158404;28;20674;-46
2022/09/18 03:39:49;;;;;;;1.48;1.10;;;;;;;10.46;100.00;98633.75;4170414;28;20649;-46
2022/09/18 03:41:51;;;;;;;1.20;1.10;;;;;;;10.38;100.00;98633.31;4156982;28;20227;-46
2022/09/18 03:43:52;;;;;;;3.28;1.20;;;;;;;10.42;100.00;98631.78;4167764;28;20574;-46
2022/09/18 03:45:54;;;;;;;2.40;1.38;;;;;;;10.45;100.00;98628.53;4154445;28;20210;-47
2022/09/18 03:47:56;;;;;;;1.80;1.17;;;;;;;10.46;100.00;98630.19;4184665;28;20224;-46
2022/09/18 03:49:58;;;;;;;2.53;1.10;;;;;;;10.46;100.00;98624.72;4168658;28;20228;-46
2022/09/18 03:51:59;;;;;;;1.88;0.98;;;;;;;10.55;100.00;98623.25;4159908;28;20236;-47
2022/09/18 03:54:01;;;;;;;1.88;1.20;;;;;;;10.46;100.00;98624.72;4154181;28;20207;-46
2022/09/18 03:56:03;;;;;;;1.52;1.20;;;;;;;10.36;100.00;98625.34;4151529;28;20205;-46
2022/09/18 03:58:05;;;;;;;1.08;0.90;;;;;;;10.41;100.00;98627.38;4150407;28;20296;-46
2022/09/18 04:00:08;;;;;;;2.75;1.38;;;;;;;10.33;100.00;98633.22;4183745;28;20224;-47
2022/09/18 04:02:10;;;;;;;2.25;1.13;;;;;;;10.35;100.00;98633.84;4165402;28;20200;-46
2022/09/18 04:04:12;;;;;;;15.35;2.80;;;;;;;10.40;100.00;98633.91;4155247;28;20635;-47
2022/09/18 04:06:13;;;;;;;2.42;1.48;;;;;;;10.36;100.00;98641.75;4167297;28;20200;-46
2022/09/18 04:08:16;;;;;;;2.65;2.00;;;;;;;10.38;100.00;98639.63;4166489;28;20290;-47
2022/09/18 04:10:19;;;;;;;3.03;1.27;;;;;;;10.49;100.00;98640.66;4184056;28;20345;-46
2022/09/18 04:12:21;;;;;;;4.75;1.25;;;;;;;10.50;100.00;98647.78;4155694;28;20201;-46
2022/09/18 04:14:23;;;;;;;5.30;1.30;;;;;;;10.32;100.00;98642.50;4154000;28;20291;-48
2022/09/18 04:16:30;;;;;;;1.65;1.02;;;;;;;10.40;100.00;98642.94;4182895;28;20245;-47
2022/09/18 04:18:32;;;;;;;3.08;1.80;;;;;;;10.38;100.00;98639.63;4137361;28;20300;-46
2022/09/18 04:20:35;;;;;;;3.83;1.80;;;;;;;10.44;100.00;98638.66;4158994;28;20212;-46
2022/09/18 04:22:36;;;;;;;3.58;1.85;;;;;;;10.46;100.00;98643.84;4152263;28;20232;-47
2022/09/18 04:24:38;;;;;;;2.90;1.33;;;;;;;10.45;100.00;98640.31;4150307;28;20230;-47
2022/09/18 04:26:40;;;;;;;2.25;1.90;;;;;;;10.46;100.00;98641.97;4153961;28;20688;-46
2022/09/18 04:28:41;;;;;;;3.97;1.40;;;;;;;10.49;100.00;98648.84;4152065;28;20284;-46
2022/09/18 04:30:45;;;;;;;4.25;1.45;;;;;;;10.34;100.00;98643.13;4138584;28;20222;-47
2022/09/18 04:32:47;;;;;;;2.70;1.67;;;;;;;10.43;100.00;98636.16;4166031;28;20216;-46
2022/09/18 04:34:48;;;;;;;2.30;1.30;;;;;;;10.30;100.00;98637.31;4152760;28;20236;-46
2022/09/18 04:36:50;;;;;;;5.75;1.40;;;;;;;10.25;100.00;98617.22;4186137;28;20228;-46
2022/09/18 04:38:52;;;;;;;4.15;1.23;;;;;;;10.20;100.00;98614.38;4166431;28;20344;-46
2022/09/18 04:40:57;;;;;;;2.05;1.40;;;;;;;10.29;100.00;98627.41;4156747;28;20197;-47
2022/09/18 04:42:59;;;;;;;1.75;1.50;;;;;;;10.21;100.00;98627.00;4151362;28;20201;-46
2022/09/18 04:45:01;;;;;;;6.40;1.20;;;;;;;10.30;100.00;98625.53;4183357;28;20203;-45
2022/09/18 04:47:03;;;;;;;3.10;1.38;;;;;;;10.14;100.00;98632.59;4154194;28;20201;-46
2022/09/18 04:49:06;;;;;;;3.50;1.42;;;;;;;10.14;100.00;98626.31;4157192;28;20319;-46
2022/09/18 04:51:08;;;;;;;2.40;1.42;;;;;;;10.01;100.00;98626.59;4168430;28;20204;-46
2022/09/18 04:53:09;;;;;;;5.38;1.77;;;;;;;10.08;100.00;98627.31;4152558;28;20205;-46
2022/09/18 04:55:11;;;;;;;3.42;1.35;;;;;;;10.14;100.00;98631.78;4184795;28;20204;-46
2022/09/18 04:57:13;;;;;;;4.00;1.30;;;;;;;10.14;100.00;98631.78;4159108;28;20235;-46
2022/09/18 04:59:15;;;;;;;2.65;1.63;;;;;;;10.20;100.00;98619.84;4156014;28;20224;-46
2022/09/18 05:01:17;;;;;;;4.32;1.75;;;;;;;10.19;100.00;98629.13;4159242;28;20209;-46
2022/09/18 05:03:19;;;;;;;3.58;1.88;;;;;;;10.18;100.00;98627.47;4157121;28;20295;-46
2022/09/18 05:05:21;;;;;;;3.70;1.30;;;;;;;10.11;100.00;98626.78;4156237;28;20650;-46
2022/09/18 05:07:23;;;;;;;5.03;1.83;;;;;;;10.02;100.00;98629.06;4152446;28;20288;-46
2022/09/18 05:09:24;;;;;;;3.63;1.60;;;;;;;10.17;100.00;98628.56;4158701;28;20256;-46
2022/09/18 05:11:26;;;;;;;10.10;2.22;;;;;;;10.16;100.00;98626.91;4157794;28;20208;-46
2022/09/18 05:13:29;;;;;;;5.22;1.63;;;;;;;10.00;100.00;98624.91;4166241;28;20208;-46
2022/09/18 05:15:31;;;;;;;7.40;1.65;;;;;;;10.02;100.00;98623.59;4155001;28;20255;-46
2022/09/18 05:17:32;;;;;;;3.78;1.40;;;;;;;10.07;100.00;98622.91;4159073;28;20316;-46
2022/09/18 05:19:34;;;;;;;3.67;1.52;;;;;;;10.02;100.00;98625.50;4167805;28;20282;-46
2022/09/18 05:21:36;;;;;;;5.07;2.22;;;;;;;10.17;100.00;98625.81;4154119;28;20213;-46
2022/09/18 05:23:38;;;;;;;4.03;1.48;;;;;;;10.17;100.00;98628.56;4154503;28;20631;-46
2022/09/18 05:25:41;;;;;;;4.45;1.70;;;;;;;10.28;100.00;98627.69;4160491;28;20292;-46
2022/09/18 05:27:42;;;;;;;3.90;1.80;;;;;;;10.07;100.00;98628.38;4182305;28;20406;-47
2022/09/18 05:29:44;;;;;;;2.10;1.38;;;;;;;10.21;100.00;98632.47;4182034;28;20314;-46
2022/09/18 05:31:46;;;;;;;1.48;1.38;;;;;;;10.23;100.00;98630.31;4182627;28;20204;-46
2022/09/18 05:33:48;;;;;;;3.50;1.40;;;;;;;10.19;100.00;98640.91;4154962;28;20200;-46
2022/09/18 05:35:53;;;;;;;4.28;1.80;;;;;;;10.03;100.00;98640.81;4151655;28;20264;-47
2022/09/18 05:37:55;;;;;;;7.18;2.22;;;;;;;9.98;100.00;98638.00;4166038;28;20231;-48
2022/09/18 05:39:57;;;;;;;2.35;1.88;;;;;;;9.88;100.00;98626.88;4181218;28;20313;-47
2022/09/18 05:41:59;;;;;;;4.13;1.60;;;;;;;9.96;100.00;98640.94;4170757;28;20219;-46
2022/09/18 05:44:01;;;;;;;6.03;1.95;;;;;;;9.90;100.00;98630.19;4152634;28;20271;-46
2022/09/18 05:46:02;;;;;;;3.22;1.42;;;;;;;9.90;100.00;98638.38;4157073;28;20208;-46
2022/09/18 05:48:05;;;;;;;4.75;1.30;;;;;;;10.01;100.00;98638.31;4157462;28;20986;-46
2022/09/18 05:50:08;;;;;;;4.30;1.50;;;;;;;10.03;100.00;98640.81;4163962;28;20713;-45
2022/09/18 05:52:10;;;;;;;2.88;1.33;;;;;;;10.02;100.00;98640.00;4151865;28;20202;-46
2022/09/18 05:54:11;;;;;;;2.33;1.67;;;;;;;10.00;100.00;98642.16;4167686;28;20291;-47
2022/09/18 05:56:14;;;;;;;2.92;1.02;;;;;;;10.00;100.00;98641.28;4200783;28;20642;-47
2022/09/18 05:58:18;;;;;;;4.03;1.35;;;;;;;10.04;100.00;98647.97;4181840;28;20255;-46
2022/09/18 06:00:19;;;;;;;5.35;1.23;;;;;;;10.07;100.00;98648.31;4175266;28;20311;-46
2022/09/18 06:02:21;;;;;;;2.90;1.15;;;;;;;10.01;100.00;98646.53;4172973;28;20215;-47
2022/09/18 06:04:23;;;;;;;6.70;1.20;;;;;;;10.06;100.00;98656.75;4154608;28;20691;-47
2022/09/18 06:06:28;;;;;;;1.60;1.17;;;;;;;10.14;100.00;98664.59;4149784;28;20296;-47
2022/09/18 06:08:30;;;;;;;3.85;1.90;;;;;;;10.15;100.00;98661.59;4156393;28;20212;-47
2022/09/18 06:10:32;;;;;;;3.67;1.75;;;;;;;10.21;100.00;98660.63;4154825;28;20235;-46
2022/09/18 06:12:34;;;;;;;2.58;1.27;;;;;;;10.23;100.00;98669.44;4185137;28;20230;-46
2022/09/18 06:14:35;;;;;;;2.50;1.70;;;;;;;10.22;100.00;98662.28;4154094;28;20598;-45
2022/09/18 06:16:37;;;;;;;2.35;1.50;;;;;;;10.22;100.00;98666.94;4148845;28;20624;-46
2022/09/18 06:18:42;;;;;;;6.32;1.52;;;;;;;10.14;100.00;98664.59;4157857;28;20691;-46
2022/09/18 06:20:52;;;;;;;3.28;1.48;;;;;;;10.22;100.00;98666.94;4152016;28;20208;-48
2022/09/18 06:22:57;;;;;;;3.15;1.40;;;;;;;10.22;100.00;98661.47;4157227;28;20737;-46
2022/09/18 06:24:59;;;;;;;8.32;1.33;;;;;;;10.25;100.00;98666.44;4179349;28;20259;-46
2022/09/18 06:27:01;;;;;;;3.15;1.65;;;;;;;10.23;100.00;98658.50;4154210;28;20196;-46
2022/09/18 06:29:03;;;;;;;1.40;1.30;;;;;;;10.25;100.00;98666.44;4156792;28;20776;-46
2022/09/18 06:31:04;;;;;;;2.92;1.35;;;;;;;10.29;100.00;98667.63;4159133;28;20232;-47
2022/09/18 06:33:08;;;;;;;1.55;1.42;;;;;;;10.43;100.00;98667.09;4157474;28;20220;-46
2022/09/18 06:35:10;;;;;;;3.30;1.42;;;;;;;10.46;100.00;98668.47;4167636;28;20307;-46
2022/09/18 06:37:13;;;;;;;4.72;1.70;;;;;;;10.43;100.00;98672.56;4156029;28;20236;-45
2022/09/18 06:39:15;;;;;;;8.18;1.50;;;;;;;10.49;100.00;98665.28;4154251;28;20729;-45
2022/09/18 06:41:17;;;;;;;3.22;1.98;;;;;;;10.59;100.00;98674.50;4171573;28;20246;-45
2022/09/18 06:43:19;;;;;;;3.05;1.30;;;;;;;10.69;100.00;98684.78;4185014;28;20673;-45
2022/09/18 06:45:21;;;;;;;2.22;1.33;;;;;;;10.68;99.85;98680.41;4161373;28;20233;-45
2022/09/18 06:47:22;;;;;;;1.73;0.90;;;;;;;10.74;99.40;98685.69;4168555;28;20343;-45
2022/09/18 06:49:24;;;;;;;1.92;1.48;;;;;;;10.66;99.50;98674.31;4169662;28;20705;-46
2022/09/18 06:51:26;;;;;;;2.13;1.40;;;;;;;10.78;99.07;98678.66;4169599;28;20204;-45
2022/09/18 06:53:27;;;;;;;2.90;1.77;;;;;;;10.80;99.62;98681.97;4173876;28;20204;-46
2022/09/18 06:55:30;;;;;;;3.75;1.50;;;;;;;10.92;99.11;98675.34;4169701;28;20239;-46
2022/09/18 06:57:32;;;;;;;3.17;1.83;;;;;;;10.97;98.49;98678.16;4185618;28;20215;-46
2022/09/18 06:59:34;;;;;;;2.45;1.65;;;;;;;11.25;98.04;98669.84;4158566;28;20248;-45
2022/09/18 07:01:36;;;;;;;2.15;1.60;;;;;;;11.38;96.99;98675.00;4148159;28;20291;-46
2022/09/18 07:03:37;;;;;;;2.22;1.30;;;;;;;11.52;95.27;98676.28;4172386;28;20681;-45
2022/09/18 07:05:41;;;;;;;2.00;1.77;;;;;;;11.49;95.28;98671.31;4168608;28;20212;-46
2022/09/18 07:07:44;;;;;;;10.50;2.08;;;;;;;11.30;95.91;98672.69;4174433;28;20204;-45
2022/09/18 07:09:46;;;;;;;3.97;1.85;;;;;;;11.41;95.72;98666.28;4170527;28;20220;-45
2022/09/18 07:11:48;;;;;;;2.50;2.22;;;;;;;11.59;96.13;98677.00;4184759;28;20291;-45
2022/09/18 07:13:50;;;;;;;2.03;1.80;;;;;;;11.40;94.81;98678.31;4151042;28;20204;-46
2022/09/18 07:15:52;;;;;;;3.90;2.53;;;;;;;11.44;95.10;98673.19;4154017;28;20950;-45
2022/09/18 07:17:58;;;;;;;7.28;2.88;;;;;;;11.52;94.98;98676.28;4155063;28;20222;-46
2022/09/18 07:19:59;;;;;;;4.88;2.67;;;;;;;11.51;94.09;98677.38;4158206;28;20271;-45
2022/09/18 07:22:01;;;;;;;2.60;1.77;;;;;;;11.52;94.66;98673.56;4155055;28;20297;-45
2022/09/18 07:24:03;;;;;;;5.75;2.80;;;;;;;11.29;95.30;98681.13;4157056;28;20209;-45
2022/09/18 07:26:05;;;;;;;3.13;2.00;;;;;;;11.43;95.80;98683.28;4150194;28;20232;-45
2022/09/18 07:28:07;;;;;;;5.82;2.38;;;;;;;11.55;95.09;98685.91;4155798;28;20287;-45
2022/09/18 07:30:10;;;;;;;3.28;2.20;;;;;;;11.62;94.83;98692.94;4183422;28;20231;-46
2022/09/18 07:32:11;;;;;;;2.03;1.70;;;;;;;11.66;94.81;98698.72;4153207;28;20248;-45
2022/09/18 07:34:13;;;;;;;6.85;1.50;;;;;;;11.64;94.10;98696.25;4155675;28;20328;-45
2022/09/18 07:36:15;;;;;;;5.70;1.67;;;;;;;11.98;93.84;98697.00;4185445;28;20298;-45
2022/09/18 07:38:16;;;;;;;1.65;1.50;;;;;;;12.11;92.84;98689.19;4137416;28;20236;-45
2022/09/18 07:40:18;;;;;;;3.00;1.30;;;;;;;12.17;93.18;98690.91;4153566;28;20284;-45
2022/09/18 07:42:20;;;;;;;4.75;1.35;;;;;;;12.26;92.56;98686.66;4159290;28;20665;-45
2022/09/18 07:44:21;;;;;;;1.95;1.13;;;;;;;12.36;92.04;98684.00;4155184;28;20204;-46
2022/09/18 07:46:23;;;;;;;2.10;1.48;;;;;;;12.38;91.63;98687.31;4183804;28;20215;-45
2022/09/18 07:48:25;;;;;;;1.98;1.17;;;;;;;12.55;90.28;98682.56;4168069;28;20200;-45
2022/09/18 07:50:27;;;;;;;2.67;1.77;;;;;;;12.95;89.56;98688.50;4156392;28;20801;-45
2022/09/18 07:52:29;;;;;;;2.38;1.75;;;;;;;12.95;89.69;98691.25;4153292;28;20650;-45
2022/09/18 07:54:31;;;;;;;2.22;1.00;;;;;;;13.26;88.88;98700.56;4154648;28;20722;-45
2022/09/18 07:56:33;;;;;;;3.50;1.00;;;;;;;12.84;88.51;98694.94;4167247;28;20640;-46
2022/09/18 07:58:35;;;;;;;2.03;1.35;;;;;;;13.05;89.46;98693.25;4173035;28;20722;-44
2022/09/18 08:00:37;;;;;;;8.35;1.10;;;;;;;13.08;87.18;98704.56;4147962;28;20210;-45
2022/09/18 08:02:40;;;;;;;2.55;1.45;;;;;;;12.97;87.81;98697.28;4150894;28;20675;-46
2022/09/18 08:04:41;;;;;;;3.33;1.30;;;;;;;12.85;88.63;98704.84;4151038;28;20200;-45
2022/09/18 08:06:44;;;;;;;3.00;1.58;;;;;;;12.91;88.79;98714.78;4149775;28;20289;-46
2022/09/18 08:08:46;;;;;;;11.10;1.42;;;;;;;12.65;88.51;98704.63;4151167;28;20306;-46
2022/09/18 08:10:54;;;;;;;4.78;1.10;;;;;;;12.56;89.20;98703.44;4180367;28;20676;-45
2022/09/18 08:12:56;;;;;;;3.47;1.17;;;;;;;12.69;88.76;98705.78;4153081;28;20272;-44
2022/09/18 08:14:58;;;;;;;2.65;1.10;;;;;;;12.65;89.04;98706.56;4140289;28;20296;-48
2022/09/18 08:17:02;;;;;;;3.60;1.48;;;;;;;13.14;88.45;98702.66;4153464;28;20429;-47
2022/09/18 08:19:04;;;;;;;3.33;1.63;;;;;;;13.09;86.85;98703.47;4151033;28;20238;-45
2022/09/18 08:21:09;;;;;;;430.33;25.55;;;;;;;13.31;85.81;98701.44;4179987;28;20218;-45
2022/09/18 08:23:11;;;;;;;6.50;2.28;;;;;;;13.57;84.83;98697.78;4163479;28;20270;-46
2022/09/18 08:25:13;;;;;;;12.18;3.05;;;;;;;13.86;84.42;98695.50;4158501;28;20204;-45
2022/09/18 08:27:15;;;;;;;5.63;1.88;;;;;;;14.08;84.21;98699.75;4151049;28;20261;-47
2022/09/18 08:29:20;;;;;;;3.28;1.30;;;;;;;14.19;82.90;98695.97;4165087;28;20324;-48
2022/09/18 08:31:22;;;;;;;2.30;1.67;;;;;;;14.24;82.25;98698.72;4158809;28;20288;-47
2022/09/18 08:33:24;;;;;;;7.35;1.50;;;;;;;14.58;81.34;98688.13;4152203;28;20268;-46
2022/09/18 08:35:26;;;;;;;3.65;1.55;;;;;;;14.75;79.69;98689.53;4160690;28;20671;-46
2022/09/18 08:37:29;;;;;;;2.60;1.50;;;;;;;14.88;79.98;98689.00;4156513;28;20610;-47
2022/09/18 08:39:30;;;;;;;2.03;1.00;;;;;;;14.78;80.36;98694.53;4141218;28;20228;-45
2022/09/18 08:41:37;;;;;;;3.53;1.10;;;;;;;14.94;78.93;98693.44;4155856;28;20291;-46
2022/09/18 08:44:10;;;;;;;3.60;0.90;;;;;;;15.10;78.02;98697.84;4171440;28;20204;-45
2022/09/18 08:46:18;;;;;;;6.35;1.10;;;;;;;14.88;78.65;98700.03;4163589;28;20724;-46
2022/09/18 08:49:02;;;;;;;10.70;1.17;;;;;;;14.89;79.55;98698.13;4186354;28;20235;-46
2022/09/18 08:51:13;;;;;;;1.80;0.90;;;;;;;14.52;78.06;98691.97;4140951;28;20213;-46
2022/09/18 08:53:23;;;;;;;2.00;1.08;;;;;;;14.21;80.15;98688.28;4154700;28;20725;-45
2022/09/18 08:55:43;;;;;;;2.50;1.45;;;;;;;14.02;81.17;98684.31;4184521;28;20212;-46
2022/09/18 08:57:58;;;;;;;4.72;1.10;;;;;;;13.87;82.51;98691.63;4185186;28;20206;-45
2022/09/18 09:00:16;;;;;;;3.10;1.42;;;;;;;14.00;82.81;98692.00;4174974;28;20311;-46
2022/09/18 09:02:36;;;;;;;1.90;0.80;;;;;;;13.54;82.65;98687.31;4168636;28;20439;-46
2022/09/18 09:04:38;;;;;;;2.15;1.00;;;;;;;13.70;82.69;98685.50;4168541;28;20215;-45
2022/09/18 09:06:49;;;;;;;2.75;1.40;;;;;;;13.63;82.57;98693.97;4151792;28;20296;-45
2022/09/18 09:09:06;;;;;;;3.40;1.15;;;;;;;13.70;82.28;98694.56;4150947;28;20240;-45
2022/09/18 09:11:23;;;;;;;2.58;1.10;;;;;;;13.71;81.90;98693.47;4169871;28;20208;-46
2022/09/18 09:13:27;;;;;;;3.83;1.15;;;;;;;13.62;82.02;98700.56;4168933;28;21172;-45
2022/09/18 09:15:37;;;;;;;2.08;1.42;;;;;;;13.67;82.02;98699.78;4170706;28;20230;-46
2022/09/18 09:17:51;;;;;;;3.00;1.02;;;;;;;13.97;81.44;98698.03;4158298;28;20239;-46
2022/09/18 09:20:02;;;;;;;3.40;1.10;;;;;;;14.11;81.10;98699.19;4152605;28;20227;-45
2022/09/18 09:22:23;;;;;;;1.55;1.00;;;;;;;14.19;81.02;98695.97;4183300;28;20204;-45
2022/09/18 09:24:30;;;;;;;2.95;0.95;;;;;;;14.24;81.42;98698.72;4142951;28;20284;-45
2022/09/18 09:26:33;;;;;;;2.33;1.05;;;;;;;14.57;81.00;98692.78;4181630;28;20263;-45
2022/09/18 09:28:58;;;;;;;4.82;1.08;;;;;;;14.51;79.02;98693.88;4174463;28;20290;-45
2022/09/18 09:31:02;;;;;;;3.13;1.20;;;;;;;14.57;79.25;98698.31;4164817;28;20201;-46
2022/09/18 09:33:30;;;;;;;4.68;1.00;;;;;;;14.70;79.08;98692.28;4151445;28;20224;-46
2022/09/18 09:35:44;;;;;;;1.42;0.88;;;;;;;14.54;77.59;98690.59;4156911;28;20589;-48
2022/09/18 09:37:47;;;;;;;6.30;0.77;;;;;;;14.42;77.33;98684.50;4182289;28;20282;-49
2022/09/18 09:40:04;;;;;;;3.03;1.00;;;;;;;14.37;77.46;98680.91;4152002;28;20265;-49
2022/09/18 09:42:20;;;;;;;2.38;1.40;;;;;;;14.35;77.33;98683.91;4150835;28;20682;-46
2022/09/18 09:44:53;;;;;;;3.10;1.30;;;;;;;14.57;77.72;98680.97;4158261;28;20625;-47